メインページ
METAR-TAF:

METAR-TAF

空港 :

Ingenika Point, ブリティッシュコロンビア州, カナダ

緯度: 56-48N, 経度: 124-54W, 海抜: 680m

現時点の気象観測

当レポートは1時間1分前の07:00(UTC)に作成
の風 6kt
気温 -6°C
湿度 86%
気圧 1020 hPa
視程: 24.1km
晴天

METAR: CWWU 190700Z 18006KT 15SM SKC M06/M08 A3012 RMK SLP201

時間: 01:01 (08:01 UTC)

予報

当レポートは52分前の07:09(UTC)に作成
予報は19日の 07時(UTC)から 20日の 06時(UTC)まで有効
の風 8kt
視程: 10km
晴天
19日の 07時(UTC)から 19日の 12時(UTC)まで一時的に
視程: 8.0km
高度2000ftの千切れ雲あり
弱いにわか雪
19日の 1200時(UTC)から
西の風 12kt
視程: 10km
高度3000ftの千切れ雲あり
19日の 1800時(UTC)から
西の風 10kt
視程: 10km
高度2000ftの雲は散在している

TAF: CWWU 190709Z 1907/2006 18008KT P6SM SKC TEMPO 1907/1912 5SM -SHSN BKN020 FM191200 27012KT P6SM BKN030 FM191800 27010KT P6SM SCT020 RMK NXT FCST BY 191200Z

4,000以上の空港の気象観測と天気予報(METAR報とTAF報)

利用可能な観測所は地図上に黄色い丸と赤い丸で示す。

丸の上にカーソルを重ねると観測所名を参照できる。

次にクリックすると気象観測と天気予報を参照できる。

マップの切り替え:黒色「×」印の緑ボタンをクリックして拡大、「-」印の緑ボタンをクリックして縮小、緑色の三角印をクリックして隣りの地図に切り替え


METAR-TAF: